Time;durP1;ratioP1;P1;durP2;ratioP2;P2;SDS_P1;SDS_P2;PMS_P1;PMS_P2;Temp;Humidity;BMP_temperature;BMP_pressure;BME280_temperature;BME280_humidity;BME280_pressure;Samples;Min_cycle;Max_cycle;Signal;HPM_P1;HPM_P2
2023/10/27 00:01:04;;;;;;;31.35;11.27;;;;;;;;;;7374526;19;20014;-75
2023/10/27 00:03:30;;;;;;;29.92;10.63;;;;;;;;;;7392469;19;19999;-76
2023/10/27 00:05:55;;;;;;;30.33;11.30;;;;;;;;;;7382508;19;19998;-76
2023/10/27 00:08:20;;;;;;;28.77;11.00;;;;;;;;;;7404224;19;20006;-75
2023/10/27 00:10:46;;;;;;;31.67;11.00;;;;;;;;;;7406120;19;20015;-75
2023/10/27 00:13:11;;;;;;;31.95;11.20;;;;;;;;;;7380397;19;20010;-75
2023/10/27 00:15:36;;;;;;;30.20;10.80;;;;;;;;;;7394963;19;20006;-75
2023/10/27 00:18:02;;;;;;;27.42;10.77;;;;;;;;;;7372771;19;20014;-75
2023/10/27 00:20:27;;;;;;;25.95;10.13;;;;;;;;;;7370528;19;20038;-77
2023/10/27 00:22:53;;;;;;;31.70;10.05;;;;;;;;;;7368376;19;20011;-75
2023/10/27 00:25:18;;;;;;;31.08;10.48;;;;;;;;;;7368924;19;20015;-76
2023/10/27 00:27:43;;;;;;;32.17;11.88;;;;;;;;;;7380521;19;20002;-76
2023/10/27 00:30:09;;;;;;;30.70;9.32;;;;;;;;;;7382338;19;19998;-75
2023/10/27 00:32:38;;;;;;;26.95;9.85;;;;;;;;;;7366673;19;20014;-76
2023/10/27 00:35:06;;;;;;;26.40;9.65;;;;;;;;;;7368247;19;20006;-76
2023/10/27 00:37:36;;;;;;;29.40;9.85;;;;;;;;;;7371377;19;20685;-76
2023/10/27 00:40:03;;;;;;;30.70;10.30;;;;;;;;;;7371005;19;20401;-75
2023/10/27 00:42:28;;;;;;;30.67;11.18;;;;;;;;;;7393323;19;20034;-74
2023/10/27 00:44:54;;;;;;;27.85;10.30;;;;;;;;;;7372016;19;20014;-76
2023/10/27 00:47:19;;;;;;;35.58;10.57;;;;;;;;;;7371457;19;20018;-76
2023/10/27 00:49:45;;;;;;;36.35;11.32;;;;;;;;;;7371671;19;20810;-76
2023/10/27 00:52:13;;;;;;;38.83;11.00;;;;;;;;;;7371319;19;20697;-76
2023/10/27 00:54:39;;;;;;;30.38;10.55;;;;;;;;;;7392281;19;20006;-75
2023/10/27 00:57:05;;;;;;;31.30;10.65;;;;;;;;;;7374807;19;20375;-75
2023/10/27 00:59:32;;;;;;;27.65;10.60;;;;;;;;;;7374176;19;20017;-75
2023/10/27 01:01:58;;;;;;;30.00;9.63;;;;;;;;;;7370712;19;20035;-76
2023/10/27 01:04:24;;;;;;;28.17;9.43;;;;;;;;;;7370992;19;20067;-76
2023/10/27 01:06:50;;;;;;;25.17;9.70;;;;;;;;;;7370650;19;20543;-76
2023/10/27 01:09:16;;;;;;;31.23;10.20;;;;;;;;;;7390244;19;20011;-76
2023/10/27 01:11:41;;;;;;;27.45;9.60;;;;;;;;;;7370429;19;20015;-76
2023/10/27 01:14:06;;;;;;;31.48;9.52;;;;;;;;;;7380439;19;20018;-76
2023/10/27 01:16:31;;;;;;;26.83;9.65;;;;;;;;;;7378919;19;20046;-75
2023/10/27 01:18:57;;;;;;;32.10;10.27;;;;;;;;;;7370476;19;20007;-76
2023/10/27 01:21:22;;;;;;;34.10;9.88;;;;;;;;;;7390818;19;20485;-75
2023/10/27 01:23:47;;;;;;;25.45;9.75;;;;;;;;;;7365911;19;20006;-75
2023/10/27 01:26:13;;;;;;;26.67;9.50;;;;;;;;;;7369856;19;20015;-75
2023/10/27 01:28:38;;;;;;;28.50;9.95;;;;;;;;;;7369439;19;20441;-75
2023/10/27 01:31:03;;;;;;;26.98;9.98;;;;;;;;;;7369930;19;20067;-75
2023/10/27 01:33:29;;;;;;;31.77;9.98;;;;;;;;;;7389077;19;20007;-75
2023/10/27 01:35:54;;;;;;;29.40;9.68;;;;;;;;;;7368473;19;20070;-76
2023/10/27 01:38:20;;;;;;;30.95;9.60;;;;;;;;;;7368942;19;20003;-76
2023/10/27 01:40:45;;;;;;;33.65;9.75;;;;;;;;;;7370108;19;20034;-76
2023/10/27 01:43:10;;;;;;;27.20;9.35;;;;;;;;;;7368119;19;20041;-76
2023/10/27 01:45:36;;;;;;;26.77;9.80;;;;;;;;;;7391085;19;20005;-75
2023/10/27 01:48:01;;;;;;;23.52;9.38;;;;;;;;;;7372420;19;20593;-75
2023/10/27 01:50:26;;;;;;;27.70;9.43;;;;;;;;;;7373953;19;20003;-76
2023/10/27 01:52:52;;;;;;;24.75;8.90;;;;;;;;;;7372414;19;20003;-75
2023/10/27 01:55:17;;;;;;;19.60;8.45;;;;;;;;;;7369775;19;20014;-76
2023/10/27 01:57:43;;;;;;;25.77;8.90;;;;;;;;;;7390521;19;20027;-76
2023/10/27 02:00:09;;;;;;;20.55;8.20;;;;;;;;;;7382433;19;20002;-77
2023/10/27 02:02:35;;;;;;;29.45;8.32;;;;;;;;;;7369769;19;20455;-75
2023/10/27 02:05:04;;;;;;;24.33;8.65;;;;;;;;;;7369762;19;20003;-77
2023/10/27 02:07:29;;;;;;;27.35;8.68;;;;;;;;;;7370856;19;20022;-77
2023/10/27 02:09:59;;;;;;;25.15;8.15;;;;;;;;;;7375943;19;20086;-77
2023/10/27 02:12:25;;;;;;;21.98;8.48;;;;;;;;;;7398999;19;19998;-77
2023/10/27 02:14:50;;;;;;;20.73;8.55;;;;;;;;;;7376050;19;20034;-77
2023/10/27 02:17:15;;;;;;;28.52;9.85;;;;;;;;;;7369449;19;20010;-77
2023/10/27 02:19:41;;;;;;;30.98;10.20;;;;;;;;;;7366685;19;20390;-77
2023/10/27 02:22:06;;;;;;;27.27;9.68;;;;;;;;;;7363729;19;20007;-77
2023/10/27 02:24:31;;;;;;;22.73;9.20;;;;;;;;;;7385427;19;20464;-77
2023/10/27 02:26:58;;;;;;;17.13;8.57;;;;;;;;;;7364625;19;20003;-77
2023/10/27 02:29:23;;;;;;;28.90;9.52;;;;;;;;;;7364657;19;20010;-77
2023/10/27 02:31:49;;;;;;;27.63;10.23;;;;;;;;;;7365664;19;19998;-77
2023/10/27 02:34:14;;;;;;;26.73;10.30;;;;;;;;;;7364898;19;20086;-77
2023/10/27 02:36:39;;;;;;;24.00;9.57;;;;;;;;;;7388523;19;20023;-77
2023/10/27 02:39:05;;;;;;;31.27;10.40;;;;;;;;;;7366240;19;20382;-77
2023/10/27 02:41:30;;;;;;;26.17;10.60;;;;;;;;;;7365531;19;20096;-77
2023/10/27 02:43:57;;;;;;;27.55;10.65;;;;;;;;;;7365186;19;20007;-77
2023/10/27 02:46:22;;;;;;;28.20;10.57;;;;;;;;;;7366888;19;20448;-77
2023/10/27 02:48:48;;;;;;;23.95;11.18;;;;;;;;;;7365033;19;20007;-77
2023/10/27 02:51:15;;;;;;;29.00;11.18;;;;;;;;;;7388294;19;20064;-77
2023/10/27 02:53:40;;;;;;;25.38;10.32;;;;;;;;;;7362999;19;20049;-77
2023/10/27 02:56:07;;;;;;;26.60;9.52;;;;;;;;;;7366003;19;20011;-77
2023/10/27 02:58:32;;;;;;;23.65;10.38;;;;;;;;;;7366494;19;20042;-77
2023/10/27 03:00:58;;;;;;;25.98;10.20;;;;;;;;;;7366430;19;20010;-77
2023/10/27 03:03:24;;;;;;;24.67;9.77;;;;;;;;;;7386582;19;20058;-77
2023/10/27 03:05:50;;;;;;;25.35;10.07;;;;;;;;;;7364965;19;20010;-77
2023/10/27 03:08:15;;;;;;;26.42;9.98;;;;;;;;;;7364685;19;20043;-77
2023/10/27 03:10:40;;;;;;;25.33;11.63;;;;;;;;;;7366298;19;20011;-77
2023/10/27 03:13:08;;;;;;;27.25;10.73;;;;;;;;;;7365132;19;20019;-77
2023/10/27 03:15:35;;;;;;;29.23;11.27;;;;;;;;;;7387145;19;20002;-77
2023/10/27 03:18:00;;;;;;;22.08;11.05;;;;;;;;;;7364449;19;20019;-77
2023/10/27 03:20:25;;;;;;;29.63;10.50;;;;;;;;;;7367689;19;20006;-77
2023/10/27 03:22:51;;;;;;;27.70;11.02;;;;;;;;;;7371223;19;20002;-77
2023/10/27 03:25:16;;;;;;;29.67;12.05;;;;;;;;;;7372392;19;20098;-75
2023/10/27 03:27:42;;;;;;;28.38;10.73;;;;;;;;;;7394414;19;20013;-76
2023/10/27 03:30:08;;;;;;;24.77;11.05;;;;;;;;;;7373282;19;20027;-75
2023/10/27 03:32:34;;;;;;;31.42;10.93;;;;;;;;;;7371231;19;20002;-75
2023/10/27 03:35:00;;;;;;;27.17;11.38;;;;;;;;;;7372679;19;20010;-76
2023/10/27 03:37:25;;;;;;;33.95;14.20;;;;;;;;;;7372954;19;20007;-76
2023/10/27 03:39:51;;;;;;;30.55;12.63;;;;;;;;;;7373315;19;19998;-76
2023/10/27 03:42:16;;;;;;;24.75;11.43;;;;;;;;;;7393826;19;20009;-76
2023/10/27 03:44:42;;;;;;;29.83;12.20;;;;;;;;;;7372363;19;20380;-76
2023/10/27 03:47:07;;;;;;;28.05;11.57;;;;;;;;;;7372195;19;20338;-76
2023/10/27 03:49:33;;;;;;;29.10;10.85;;;;;;;;;;7371381;19;20464;-76
2023/10/27 03:51:59;;;;;;;23.00;10.35;;;;;;;;;;7371528;19;20010;-76
2023/10/27 03:54:24;;;;;;;30.13;11.02;;;;;;;;;;7394080;19;20429;-76
2023/10/27 03:56:51;;;;;;;37.05;11.80;;;;;;;;;;7373551;19;20011;-76
2023/10/27 03:59:18;;;;;;;33.42;13.25;;;;;;;;;;7374417;19;20130;-76
2023/10/27 04:01:43;;;;;;;26.25;10.80;;;;;;;;;;7372020;19;20002;-75
2023/10/27 04:04:09;;;;;;;28.23;10.95;;;;;;;;;;7370829;19;20586;-75
2023/10/27 04:06:34;;;;;;;25.45;10.30;;;;;;;;;;7393405;19;20002;-75
2023/10/27 04:09:00;;;;;;;28.27;10.30;;;;;;;;;;7370362;19;20361;-76
2023/10/27 04:11:25;;;;;;;28.38;10.48;;;;;;;;;;7376426;19;20003;-76
2023/10/27 04:13:50;;;;;;;31.27;10.18;;;;;;;;;;7374868;19;20019;-75
2023/10/27 04:16:16;;;;;;;20.35;9.88;;;;;;;;;;7373528;19;20038;-75
2023/10/27 04:18:41;;;;;;;32.92;11.23;;;;;;;;;;7394181;19;20025;-75
2023/10/27 04:21:06;;;;;;;29.13;11.32;;;;;;;;;;7371646;19;20014;-74
2023/10/27 04:23:32;;;;;;;25.75;11.45;;;;;;;;;;7368863;19;20129;-74
2023/10/27 04:25:57;;;;;;;29.35;11.15;;;;;;;;;;7372017;19;20356;-75
2023/10/27 04:28:22;;;;;;;25.55;10.25;;;;;;;;;;7370431;19;20003;-75
2023/10/27 04:30:48;;;;;;;30.48;10.50;;;;;;;;;;7368889;19;20090;-75
2023/10/27 04:33:15;;;;;;;22.10;9.60;;;;;;;;;;7388438;19;19999;-75
2023/10/27 04:35:41;;;;;;;26.40;9.77;;;;;;;;;;7370367;19;20006;-75
2023/10/27 04:38:06;;;;;;;33.92;10.35;;;;;;;;;;7370789;19;20794;-75
2023/10/27 04:40:34;;;;;;;29.77;10.48;;;;;;;;;;7368264;19;20031;-75
2023/10/27 04:43:00;;;;;;;28.70;10.30;;;;;;;;;;7368610;19;20014;-75
2023/10/27 04:45:26;;;;;;;25.77;9.70;;;;;;;;;;7392178;19;20006;-75
2023/10/27 04:47:52;;;;;;;27.38;9.30;;;;;;;;;;7369377;19;20037;-76
2023/10/27 04:50:17;;;;;;;31.95;9.73;;;;;;;;;;7370212;19;20362;-76
2023/10/27 04:52:44;;;;;;;22.42;9.45;;;;;;;;;;7368484;19;20030;-76
2023/10/27 04:55:10;;;;;;;24.88;9.40;;;;;;;;;;7370274;19;20025;-76
2023/10/27 04:57:36;;;;;;;22.80;9.40;;;;;;;;;;7390932;19;20465;-75
2023/10/27 05:00:04;;;;;;;26.27;9.60;;;;;;;;;;7370377;19;20003;-75
2023/10/27 05:02:30;;;;;;;25.73;10.40;;;;;;;;;;7369588;19;20013;-76
2023/10/27 05:04:55;;;;;;;27.67;10.60;;;;;;;;;;7369584;19;20007;-76
2023/10/27 05:07:20;;;;;;;26.30;9.68;;;;;;;;;;7357708;19;20014;-76
2023/10/27 05:09:45;;;;;;;21.80;9.60;;;;;;;;;;7370122;19;20117;-76
2023/10/27 05:12:11;;;;;;;23.20;9.98;;;;;;;;;;7391439;19;20100;-76
2023/10/27 05:14:36;;;;;;;27.77;10.10;;;;;;;;;;7366227;19;20006;-76
2023/10/27 05:17:02;;;;;;;33.75;10.88;;;;;;;;;;7367854;19;20013;-76
2023/10/27 05:19:27;;;;;;;32.13;11.63;;;;;;;;;;7369663;19;19998;-77
2023/10/27 05:21:52;;;;;;;29.33;10.70;;;;;;;;;;7369818;19;20341;-77
2023/10/27 05:24:18;;;;;;;22.55;10.27;;;;;;;;;;7390485;19;20002;-77
2023/10/27 05:26:43;;;;;;;29.67;10.52;;;;;;;;;;7370335;19;20648;-77
2023/10/27 05:29:08;;;;;;;29.88;11.98;;;;;;;;;;7374109;19;20010;-77
2023/10/27 05:31:34;;;;;;;29.42;10.98;;;;;;;;;;7373465;19;20029;-77
2023/10/27 05:34:00;;;;;;;28.75;10.02;;;;;;;;;;7371944;19;20017;-77
2023/10/27 05:36:26;;;;;;;28.73;10.15;;;;;;;;;;7394679;19;20007;-77
2023/10/27 05:38:51;;;;;;;27.63;9.60;;;;;;;;;;7371543;19;20134;-77
2023/10/27 05:41:16;;;;;;;29.10;10.05;;;;;;;;;;7368505;19;20011;-77
2023/10/27 05:43:42;;;;;;;28.92;9.65;;;;;;;;;;7368334;19;20069;-77
2023/10/27 05:46:07;;;;;;;27.35;9.80;;;;;;;;;;7369057;19;20017;-77
2023/10/27 05:48:32;;;;;;;30.35;10.50;;;;;;;;;;7389798;19;20042;-77
2023/10/27 05:50:58;;;;;;;32.53;12.23;;;;;;;;;;7369141;19;20033;-77
2023/10/27 05:53:25;;;;;;;32.10;11.85;;;;;;;;;;7366945;19;20010;-77
2023/10/27 05:55:53;;;;;;;33.05;12.27;;;;;;;;;;7368530;19;20083;-77
2023/10/27 05:58:18;;;;;;;32.97;11.77;;;;;;;;;;7368823;19;20020;-77
2023/10/27 06:00:46;;;;;;;41.30;11.20;;;;;;;;;;7378621;19;20010;-77
2023/10/27 06:03:11;;;;;;;27.48;11.90;;;;;;;;;;7390134;19;20366;-77
2023/10/27 06:05:37;;;;;;;39.50;10.85;;;;;;;;;;7361466;19;20112;-77
2023/10/27 06:08:03;;;;;;;35.75;10.52;;;;;;;;;;7367853;19;20587;-77
2023/10/27 06:10:29;;;;;;;40.78;11.52;;;;;;;;;;7374610;19;20002;-77
2023/10/27 06:12:54;;;;;;;39.63;11.05;;;;;;;;;;7370164;19;20058;-78
2023/10/27 06:15:20;;;;;;;32.53;11.18;;;;;;;;;;7389101;19;19995;-76
2023/10/27 06:17:45;;;;;;;40.90;10.82;;;;;;;;;;7366075;19;20560;-76
2023/10/27 06:20:10;;;;;;;28.63;10.95;;;;;;;;;;7367325;19;20010;-76
2023/10/27 06:22:36;;;;;;;37.08;10.95;;;;;;;;;;7365977;19;20566;-78
2023/10/27 06:25:01;;;;;;;39.65;12.45;;;;;;;;;;7356012;19;19999;-77
2023/10/27 06:27:26;;;;;;;33.05;11.95;;;;;;;;;;7395244;19;20003;-77
2023/10/27 06:29:51;;;;;;;29.88;11.30;;;;;;;;;;7372106;19;20100;-75
2023/10/27 06:32:17;;;;;;;31.80;12.25;;;;;;;;;;7365977;19;20055;-76
2023/10/27 06:34:43;;;;;;;28.38;11.32;;;;;;;;;;7350194;19;20010;-76
2023/10/27 06:37:09;;;;;;;38.53;12.82;;;;;;;;;;7362614;19;20006;-74
2023/10/27 06:39:34;;;;;;;29.80;11.65;;;;;;;;;;7384218;19;20042;-75
2023/10/27 06:41:59;;;;;;;27.40;11.07;;;;;;;;;;7362368;19;20322;-75
2023/10/27 06:44:25;;;;;;;28.73;10.55;;;;;;;;;;7362349;19;20006;-75
2023/10/27 06:46:51;;;;;;;26.50;11.00;;;;;;;;;;7362317;19;20010;-75
2023/10/27 06:49:16;;;;;;;24.48;9.85;;;;;;;;;;7363227;19;20077;-76
2023/10/27 06:51:41;;;;;;;21.52;11.13;;;;;;;;;;7387500;19;20062;-76
2023/10/27 06:54:07;;;;;;;24.77;10.65;;;;;;;;;;7362407;19;20074;-75
2023/10/27 06:56:32;;;;;;;25.85;11.23;;;;;;;;;;7375787;19;20064;-76
2023/10/27 06:58:58;;;;;;;28.00;10.27;;;;;;;;;;7379952;19;20006;-75
2023/10/27 07:01:23;;;;;;;25.70;10.88;;;;;;;;;;7377100;19;20011;-76
2023/10/27 07:03:48;;;;;;;30.13;11.05;;;;;;;;;;7377566;19;20447;-77
2023/10/27 07:06:14;;;;;;;22.63;10.27;;;;;;;;;;7402069;19;20417;-76
2023/10/27 07:08:39;;;;;;;24.05;10.68;;;;;;;;;;7381910;19;20110;-76
2023/10/27 07:11:04;;;;;;;26.15;10.13;;;;;;;;;;7384448;19;20014;-76
2023/10/27 07:13:30;;;;;;;24.80;11.25;;;;;;;;;;7383799;19;20046;-78
2023/10/27 07:15:56;;;;;;;21.40;10.48;;;;;;;;;;7382240;19;20002;-76
2023/10/27 07:18:21;;;;;;;27.42;9.93;;;;;;;;;;7402570;19;20003;-76
2023/10/27 07:20:47;;;;;;;25.70;9.63;;;;;;;;;;7375982;19;20017;-76
2023/10/27 07:23:13;;;;;;;18.95;9.40;;;;;;;;;;7374269;19;20007;-77
2023/10/27 07:25:38;;;;;;;23.30;9.88;;;;;;;;;;7377365;19;20013;-76
2023/10/27 07:28:04;;;;;;;18.08;9.98;;;;;;;;;;7379047;19;20808;-76
2023/10/27 07:30:30;;;;;;;19.70;8.60;;;;;;;;;;7400706;19;20485;-77
2023/10/27 07:32:56;;;;;;;23.08;9.73;;;;;;;;;;7380869;19;20014;-78
2023/10/27 07:35:21;;;;;;;27.85;9.45;;;;;;;;;;7380931;19;20022;-77
2023/10/27 07:37:48;;;;;;;23.27;9.13;;;;;;;;;;7377878;19;20070;-77
2023/10/27 07:40:15;;;;;;;20.58;8.82;;;;;;;;;;7378522;19;20010;-77
2023/10/27 07:42:40;;;;;;;18.73;9.88;;;;;;;;;;7403211;19;20010;-77
2023/10/27 07:45:06;;;;;;;22.80;9.55;;;;;;;;;;7382423;19;20027;-77
2023/10/27 07:47:32;;;;;;;17.40;9.15;;;;;;;;;;7379183;19;20321;-77
2023/10/27 07:50:00;;;;;;;15.93;9.25;;;;;;;;;;7387884;19;20070;-77
2023/10/27 07:52:25;;;;;;;15.63;8.85;;;;;;;;;;7381966;19;20083;-77
2023/10/27 07:54:50;;;;;;;17.83;8.60;;;;;;;;;;7381697;19;20467;-77
2023/10/27 07:57:16;;;;;;;14.23;7.45;;;;;;;;;;7393299;19;20012;-77
2023/10/27 07:59:41;;;;;;;14.30;7.35;;;;;;;;;;7378353;19;20035;-75
2023/10/27 08:02:07;;;;;;;13.50;6.57;;;;;;;;;;7377796;19;20021;-75
2023/10/27 08:04:34;;;;;;;9.50;5.38;;;;;;;;;;7375679;19;20056;-76
2023/10/27 08:07:00;;;;;;;9.77;4.43;;;;;;;;;;7376645;19;19999;-78
2023/10/27 08:09:25;;;;;;;7.88;4.70;;;;;;;;;;7391476;19;19999;-77
2023/10/27 08:11:50;;;;;;;11.27;4.75;;;;;;;;;;7369066;19;20006;-77
2023/10/27 08:14:16;;;;;;;9.10;3.78;;;;;;;;;;7369354;19;20033;-76
2023/10/27 08:16:43;;;;;;;8.15;3.75;;;;;;;;;;7368794;19;20089;-76
2023/10/27 08:19:08;;;;;;;7.95;4.10;;;;;;;;;;7367832;19;20451;-77
2023/10/27 08:21:33;;;;;;;8.63;3.60;;;;;;;;;;7390839;19;20003;-76
2023/10/27 08:23:59;;;;;;;7.93;3.70;;;;;;;;;;7367221;19;20420;-76
2023/10/27 08:26:24;;;;;;;6.10;2.88;;;;;;;;;;7371863;19;20014;-77
2023/10/27 08:28:49;;;;;;;8.32;3.47;;;;;;;;;;7373022;19;20442;-77
2023/10/27 08:31:16;;;;;;;10.98;3.33;;;;;;;;;;7373183;19;20003;-76
2023/10/27 08:33:42;;;;;;;12.00;4.47;;;;;;;;;;7393299;19;20404;-77
2023/10/27 08:36:07;;;;;;;9.25;4.30;;;;;;;;;;7371376;19;20010;-76
2023/10/27 08:38:32;;;;;;;9.48;4.50;;;;;;;;;;7372576;19;20046;-76
2023/10/27 08:40:58;;;;;;;12.40;4.70;;;;;;;;;;7369863;19;20014;-75
2023/10/27 08:43:25;;;;;;;12.07;4.43;;;;;;;;;;7369831;19;20651;-76
2023/10/27 08:45:51;;;;;;;9.05;3.90;;;;;;;;;;7370929;19;20477;-76
2023/10/27 08:48:17;;;;;;;9.63;4.00;;;;;;;;;;7394421;19;20006;-78
2023/10/27 08:50:42;;;;;;;8.18;3.65;;;;;;;;;;7383406;19;20114;-78
2023/10/27 08:53:14;;;;;;;7.80;3.88;;;;;;;;;;7390781;19;20013;-77
2023/10/27 08:55:40;;;;;;;6.97;3.58;;;;;;;;;;7383033;19;20006;-77
2023/10/27 08:58:05;;;;;;;7.68;3.70;;;;;;;;;;7384171;19;20018;-77
2023/10/27 09:00:30;;;;;;;6.70;3.58;;;;;;;;;;7406510;19;20000;-76
2023/10/27 09:02:55;;;;;;;8.27;3.40;;;;;;;;;;7379397;19;20003;-77
2023/10/27 09:05:23;;;;;;;8.23;3.30;;;;;;;;;;7372259;19;20027;-76
2023/10/27 09:07:49;;;;;;;7.60;3.30;;;;;;;;;;7374475;19;20030;-78
2023/10/27 09:10:17;;;;;;;7.00;2.88;;;;;;;;;;7372280;19;20015;-78
2023/10/27 09:12:44;;;;;;;5.85;3.08;;;;;;;;;;7393892;19;20007;-77
2023/10/27 09:15:12;;;;;;;4.50;2.22;;;;;;;;;;7366415;19;20010;-77
2023/10/27 09:17:58;;;;;;;5.13;2.75;;;;;;;;;;7369686;19;20014;-76
2023/10/27 09:20:25;;;;;;;4.43;2.00;;;;;;;;;;7371311;19;20070;-78
2023/10/27 09:23:02;;;;;;;5.32;2.30;;;;;;;;;;7369503;19;20010;-76
2023/10/27 09:25:32;;;;;;;4.15;1.90;;;;;;;;;;7373161;19;20003;-78
2023/10/27 09:27:59;;;;;;;4.82;1.83;;;;;;;;;;7372507;19;20010;-78
2023/10/27 09:30:26;;;;;;;3.08;1.80;;;;;;;;;;7396753;19;20002;-77
2023/10/27 09:32:51;;;;;;;4.13;1.90;;;;;;;;;;7369077;19;20011;-77
2023/10/27 09:35:18;;;;;;;4.03;2.03;;;;;;;;;;7374981;19;20013;-77
2023/10/27 09:37:46;;;;;;;2.55;1.63;;;;;;;;;;7374068;19;20027;-78
2023/10/27 09:40:13;;;;;;;5.85;1.90;;;;;;;;;;7375170;19;20031;-77
2023/10/27 09:42:40;;;;;;;4.78;2.20;;;;;;;;;;7391111;19;20010;-77
2023/10/27 09:45:13;;;;;;;3.20;1.85;;;;;;;;;;7370881;19;20350;-77
2023/10/27 09:47:41;;;;;;;4.45;1.70;;;;;;;;;;7367751;19;20137;-77
2023/10/27 09:50:11;;;;;;;3.50;2.00;;;;;;;;;;7368421;19;20030;-76
2023/10/27 09:52:40;;;;;;;2.95;1.73;;;;;;;;;;7367769;19;20118;-77
2023/10/27 09:55:07;;;;;;;3.80;1.90;;;;;;;;;;7369560;19;20032;-78
2023/10/27 09:57:34;;;;;;;3.35;1.70;;;;;;;;;;7392942;19;19999;-76
2023/10/27 10:00:01;;;;;;;3.30;1.70;;;;;;;;;;7369465;19;20025;-76
2023/10/27 10:02:29;;;;;;;2.10;1.50;;;;;;;;;;7370514;19;20007;-76
2023/10/27 10:04:54;;;;;;;1.75;1.30;;;;;;;;;;7366385;19;20042;-76
2023/10/27 10:07:42;;;;;;;2.67;1.42;;;;;;;;;;7368343;19;20496;-76
2023/10/27 10:10:29;;;;;;;3.05;1.60;;;;;;;;;;7371659;19;20007;-77
2023/10/27 10:13:01;;;;;;;2.30;1.48;;;;;;;;;;7366391;19;20023;-77
2023/10/27 10:15:34;;;;;;;1.40;1.30;;;;;;;;;;7388089;19;20077;-76
2023/10/27 10:18:01;;;;;;;1.77;1.20;;;;;;;;;;7367278;19;20012;-76
2023/10/27 10:20:44;;;;;;;1.08;0.98;;;;;;;;;;7368470;19;20002;-76
2023/10/27 10:23:14;;;;;;;1.35;1.08;;;;;;;;;;7365123;19;20369;-76
2023/10/27 10:25:56;;;;;;;1.40;1.10;;;;;;;;;;7367148;19;20037;-77
2023/10/27 10:28:29;;;;;;;1.58;1.20;;;;;;;;;;7368556;19;20011;-76
2023/10/27 10:31:17;;;;;;;2.88;1.30;;;;;;;;;;7365990;19;20122;-77
2023/10/27 10:33:48;;;;;;;2.67;1.40;;;;;;;;;;7385227;19;20013;-78
2023/10/27 10:36:22;;;;;;;2.35;1.20;;;;;;;;;;7392531;19;20036;-76
2023/10/27 10:39:04;;;;;;;1.60;1.15;;;;;;;;;;7369585;19;20473;-78
2023/10/27 10:41:42;;;;;;;1.52;1.00;;;;;;;;;;7372815;19;20089;-78
2023/10/27 10:44:14;;;;;;;3.03;1.08;;;;;;;;;;7364883;19;20353;-77
2023/10/27 10:46:44;;;;;;;2.78;1.10;;;;;;;;;;7367247;19;20022;-77
2023/10/27 10:49:21;;;;;;;2.93;1.27;;;;;;;;;;7366331;19;20058;-77
2023/10/27 10:51:53;;;;;;;1.45;1.10;;;;;;;;;;7372404;19;20397;-79
2023/10/27 10:54:20;;;;;;;2.70;1.17;;;;;;;;;;7391619;19;20087;-78
2023/10/27 10:56:45;;;;;;;4.30;1.20;;;;;;;;;;7369420;19;20015;-79
2023/10/27 10:59:20;;;;;;;1.73;1.05;;;;;;;;;;7370348;19;20010;-78
2023/10/27 11:01:45;;;;;;;3.47;1.10;;;;;;;;;;7373330;19;20106;-78
2023/10/27 11:04:11;;;;;;;2.78;1.10;;;;;;;;;;7371346;19;20018;-76
2023/10/27 11:06:36;;;;;;;3.55;1.20;;;;;;;;;;7399093;19;20002;-77
2023/10/27 11:09:04;;;;;;;4.93;1.45;;;;;;;;;;7367890;19;20534;-78
2023/10/27 11:11:33;;;;;;;2.92;1.30;;;;;;;;;;7369296;19;20021;-77
2023/10/27 11:13:59;;;;;;;4.55;1.38;;;;;;;;;;7354045;19;20010;-76
2023/10/27 11:16:26;;;;;;;3.60;1.50;;;;;;;;;;7356753;19;20009;-77
2023/10/27 11:18:59;;;;;;;3.83;1.45;;;;;;;;;;7367153;19;20584;-76
2023/10/27 11:21:27;;;;;;;7.38;1.65;;;;;;;;;;7387220;19;20285;-76
2023/10/27 11:23:53;;;;;;;6.10;1.60;;;;;;;;;;7363380;19;20018;-76
2023/10/27 11:26:20;;;;;;;4.35;1.50;;;;;;;;;;7366073;19;20095;-77
2023/10/27 11:28:46;;;;;;;4.05;1.48;;;;;;;;;;7364704;19;20006;-77
2023/10/27 11:31:13;;;;;;;4.85;1.58;;;;;;;;;;7366956;19;20116;-76
2023/10/27 11:34:00;;;;;;;5.00;1.70;;;;;;;;;;7385474;19;20022;-76
2023/10/27 11:36:27;;;;;;;4.47;1.77;;;;;;;;;;7366534;19;20027;-77
2023/10/27 11:38:53;;;;;;;7.65;1.92;;;;;;;;;;7364830;19;20010;-76
2023/10/27 11:41:19;;;;;;;5.70;1.70;;;;;;;;;;7367568;19;20011;-77
2023/10/27 11:43:45;;;;;;;5.10;1.63;;;;;;;;;;7369847;19;20082;-76
2023/10/27 11:46:15;;;;;;;7.70;1.60;;;;;;;;;;7373034;19;20116;-76
2023/10/27 11:48:41;;;;;;;5.75;1.70;;;;;;;;;;7391540;19;20014;-77
2023/10/27 11:51:07;;;;;;;7.53;1.70;;;;;;;;;;7371988;19;20019;-76
2023/10/27 11:53:36;;;;;;;6.00;1.70;;;;;;;;;;7367743;19;20003;-77
2023/10/27 11:56:04;;;;;;;9.02;2.13;;;;;;;;;;7372172;19;20006;-75
2023/10/27 11:58:30;;;;;;;6.07;1.60;;;;;;;;;;7372711;19;20019;-75
2023/10/27 12:00:55;;;;;;;6.57;1.70;;;;;;;;;;7372653;19;19998;-76
2023/10/27 12:03:21;;;;;;;4.68;1.40;;;;;;;;;;7390082;19;19998;-76
2023/10/27 12:05:46;;;;;;;8.15;1.90;;;;;;;;;;7371710;19;20009;-77
2023/10/27 12:08:11;;;;;;;5.47;1.63;;;;;;;;;;7372146;19;20011;-77
2023/10/27 12:10:37;;;;;;;3.97;1.58;;;;;;;;;;7372136;19;20003;-75
2023/10/27 12:13:06;;;;;;;4.32;1.45;;;;;;;;;;7370544;19;20002;-75
2023/10/27 12:15:33;;;;;;;4.55;1.73;;;;;;;;;;7396357;19;20005;-77
2023/10/27 12:17:59;;;;;;;5.55;2.13;;;;;;;;;;7380528;19;20018;-77
2023/10/27 12:20:26;;;;;;;6.22;1.70;;;;;;;;;;7380128;19;20009;-77
2023/10/27 12:22:53;;;;;;;6.05;1.50;;;;;;;;;;7376378;19;20412;-76
2023/10/27 12:25:18;;;;;;;5.47;1.80;;;;;;;;;;7378536;19;20074;-76
2023/10/27 12:27:44;;;;;;;4.43;1.40;;;;;;;;;;7388449;19;20006;-76
2023/10/27 12:30:10;;;;;;;4.82;1.65;;;;;;;;;;7398980;19;20039;-76
2023/10/27 12:32:37;;;;;;;2.70;1.30;;;;;;;;;;7372087;19;20002;-77
2023/10/27 12:35:03;;;;;;;4.50;1.52;;;;;;;;;;7370014;19;20011;-75
2023/10/27 12:37:30;;;;;;;6.60;1.75;;;;;;;;;;7376200;19;19998;-77
2023/10/27 12:39:56;;;;;;;4.85;1.60;;;;;;;;;;7373508;19;20028;-76
2023/10/27 12:42:22;;;;;;;6.40;1.90;;;;;;;;;;7394689;19;20007;-77
2023/10/27 12:44:48;;;;;;;6.45;1.90;;;;;;;;;;7372910;19;20038;-77
2023/10/27 12:47:13;;;;;;;8.43;1.77;;;;;;;;;;7375590;19;20003;-77
2023/10/27 12:49:38;;;;;;;5.85;1.83;;;;;;;;;;7372421;19;20034;-76
2023/10/27 12:52:05;;;;;;;7.55;1.75;;;;;;;;;;7373441;19;20021;-76
2023/10/27 12:54:37;;;;;;;4.65;1.80;;;;;;;;;;7390250;19;20006;-76
2023/10/27 12:57:04;;;;;;;7.85;1.80;;;;;;;;;;7370989;19;20495;-77
2023/10/27 12:59:29;;;;;;;6.15;1.90;;;;;;;;;;7372150;19;20674;-77
2023/10/27 13:01:55;;;;;;;7.30;1.55;;;;;;;;;;7369502;19;20011;-76
2023/10/27 13:04:20;;;;;;;5.00;1.70;;;;;;;;;;7371529;19;20025;-76
2023/10/27 13:06:46;;;;;;;7.25;2.00;;;;;;;;;;7371619;19;20481;-77
2023/10/27 13:09:11;;;;;;;5.38;1.70;;;;;;;;;;7391697;19;20010;-76
2023/10/27 13:11:38;;;;;;;4.50;1.70;;;;;;;;;;7370577;19;20025;-76
2023/10/27 13:14:04;;;;;;;6.70;1.80;;;;;;;;;;7370486;19;20014;-77
2023/10/27 13:16:29;;;;;;;5.78;1.48;;;;;;;;;;7371217;19;20002;-76
2023/10/27 13:18:54;;;;;;;4.10;1.52;;;;;;;;;;7371565;19;20011;-77
2023/10/27 13:21:20;;;;;;;3.13;1.48;;;;;;;;;;7392211;19;20021;-76
2023/10/27 13:23:45;;;;;;;7.13;1.90;;;;;;;;;;7368954;19;20009;-76
2023/10/27 13:26:11;;;;;;;5.18;1.65;;;;;;;;;;7372301;19;20006;-78
2023/10/27 13:28:36;;;;;;;5.88;1.80;;;;;;;;;;7378633;19;20017;-76
2023/10/27 13:31:01;;;;;;;6.70;1.70;;;;;;;;;;7382062;19;20078;-77
2023/10/27 13:33:27;;;;;;;5.22;1.77;;;;;;;;;;7402664;19;20070;-77
2023/10/27 13:36:00;;;;;;;3.88;1.50;;;;;;;;;;7381533;19;20011;-77
2023/10/27 13:38:27;;;;;;;9.45;1.80;;;;;;;;;;7381951;19;20055;-78
2023/10/27 13:40:52;;;;;;;5.40;1.67;;;;;;;;;;7390958;19;20006;-79
2023/10/27 13:43:20;;;;;;;5.28;1.70;;;;;;;;;;7384722;19;20014;-77
2023/10/27 13:45:46;;;;;;;4.63;1.52;;;;;;;;;;7386729;19;20006;-78
2023/10/27 13:48:11;;;;;;;4.43;1.42;;;;;;;;;;7403367;19;20014;-75
2023/10/27 13:50:37;;;;;;;5.60;1.80;;;;;;;;;;7382875;19;20007;-76
2023/10/27 13:53:02;;;;;;;4.25;1.40;;;;;;;;;;7383862;19;20010;-76
2023/10/27 13:55:27;;;;;;;3.50;1.35;;;;;;;;;;7384610;19;20010;-76
2023/10/27 13:57:53;;;;;;;5.82;1.67;;;;;;;;;;7381924;19;20038;-77
2023/10/27 14:00:18;;;;;;;4.60;1.58;;;;;;;;;;7404254;19;20017;-77
2023/10/27 14:02:44;;;;;;;4.22;1.50;;;;;;;;;;7380576;19;20014;-76
2023/10/27 14:05:12;;;;;;;5.20;2.13;;;;;;;;;;7378136;19;20481;-78
2023/10/27 14:07:37;;;;;;;3.35;1.65;;;;;;;;;;7381582;19;20018;-76
2023/10/27 14:10:03;;;;;;;3.85;1.52;;;;;;;;;;7380865;19;20016;-76
2023/10/27 14:12:29;;;;;;;4.00;1.70;;;;;;;;;;7401059;19;19998;-75
2023/10/27 14:14:54;;;;;;;4.60;1.60;;;;;;;;;;7377962;19;20045;-75
2023/10/27 14:17:19;;;;;;;5.53;1.63;;;;;;;;;;7378438;19;20009;-75
2023/10/27 14:19:45;;;;;;;3.58;1.33;;;;;;;;;;7380400;19;20011;-75
2023/10/27 14:22:10;;;;;;;6.22;1.60;;;;;;;;;;7379937;19;20011;-76
2023/10/27 14:24:35;;;;;;;5.45;1.40;;;;;;;;;;7401341;19;20014;-74
2023/10/27 14:27:01;;;;;;;5.40;1.45;;;;;;;;;;7379722;19;20006;-75